createdAt,value
2019-02-05T00:01:37.523Z,4.51
2019-02-05T00:04:07.441Z,4.55
2019-02-05T00:06:37.475Z,4.63
2019-02-05T00:09:11.317Z,4.63
2019-02-05T00:11:41.255Z,4.63
2019-02-05T00:14:11.188Z,4.66
2019-02-05T00:16:41.497Z,4.65
2019-02-05T00:19:13.406Z,4.60
2019-02-05T00:21:43.575Z,4.66
2019-02-05T00:24:14.030Z,4.65
2019-02-05T00:26:44.119Z,4.71
2019-02-05T00:29:14.120Z,4.71
2019-02-05T00:31:44.823Z,4.55
2019-02-05T00:34:15.081Z,4.69
2019-02-05T00:36:45.038Z,4.61
2019-02-05T00:39:15.453Z,4.73
2019-02-05T00:41:45.419Z,4.78
2019-02-05T00:44:15.597Z,4.69
2019-02-05T00:46:45.557Z,4.70
2019-02-05T00:49:15.768Z,4.78
2019-02-05T00:51:45.796Z,4.80
2019-02-05T00:54:15.769Z,4.88
2019-02-05T00:56:45.693Z,4.82
2019-02-05T00:59:15.917Z,4.81
2019-02-05T01:01:46.068Z,4.81
2019-02-05T01:04:17.798Z,4.81
2019-02-05T01:06:48.472Z,4.77
2019-02-05T01:09:18.465Z,4.85
2019-02-05T01:11:48.677Z,4.86
2019-02-05T01:14:18.632Z,4.91
2019-02-05T01:16:48.516Z,4.90
2019-02-05T01:19:18.624Z,4.92
2019-02-05T01:21:48.916Z,4.87
2019-02-05T01:24:19.025Z,4.73
2019-02-05T01:26:48.962Z,4.83
2019-02-05T01:29:19.032Z,4.92
2019-02-05T01:31:48.950Z,4.95
2019-02-05T01:34:18.834Z,4.87
2019-02-05T01:36:48.766Z,4.91
2019-02-05T01:39:19.100Z,4.74
2019-02-05T01:41:49.068Z,4.77
2019-02-05T01:44:19.036Z,4.77
2019-02-05T01:46:49.110Z,4.74
2019-02-05T01:49:19.133Z,4.65
2019-02-05T01:51:49.176Z,4.59
2019-02-05T01:54:20.030Z,4.65
2019-02-05T01:56:50.500Z,4.37
2019-02-05T01:59:20.510Z,4.53
2019-02-05T02:01:50.454Z,4.67
2019-02-05T02:04:20.369Z,4.65
2019-02-05T02:06:50.582Z,4.55
2019-02-05T02:09:27.932Z,4.59
2019-02-05T02:12:06.986Z,4.37
2019-02-05T02:14:36.959Z,4.40
2019-02-05T02:17:07.130Z,4.38
2019-02-05T02:19:37.168Z,4.46
2019-02-05T02:22:08.373Z,4.45
2019-02-05T02:24:40.604Z,4.35
2019-02-05T02:27:10.674Z,4.15
2019-02-05T02:29:40.677Z,4.14
2019-02-05T02:32:10.985Z,4.24
2019-02-05T02:34:41.475Z,4.23
2019-02-05T02:37:11.413Z,4.08
2019-02-05T02:39:41.403Z,4.03
2019-02-05T02:42:11.425Z,4.18
2019-02-05T02:44:41.404Z,4.15
2019-02-05T02:47:11.420Z,4.01
2019-02-05T02:49:41.337Z,4.04
2019-02-05T02:52:11.225Z,4.01
2019-02-05T02:54:41.833Z,3.97
2019-02-05T02:57:11.747Z,4.03
2019-02-05T02:59:43.039Z,4.07
2019-02-05T03:02:12.929Z,4.09
2019-02-05T03:04:43.770Z,4.11
2019-02-05T03:07:15.378Z,4.12
2019-02-05T03:09:45.359Z,4.08
2019-02-05T03:12:15.410Z,4.04
2019-02-05T03:14:45.551Z,4.00
2019-02-05T03:17:15.550Z,4.00
2019-02-05T03:19:45.381Z,4.02
2019-02-05T03:22:15.353Z,3.98
2019-02-05T03:24:45.331Z,4.00
2019-02-05T03:27:18.217Z,4.00
2019-02-05T03:29:48.229Z,3.96
2019-02-05T03:32:18.282Z,4.01
2019-02-05T03:34:48.215Z,4.03
2019-02-05T03:37:18.215Z,4.13
2019-02-05T03:39:48.174Z,4.07
2019-02-05T03:42:18.037Z,3.79
2019-02-05T03:44:48.791Z,3.98
2019-02-05T03:47:19.531Z,4.09
2019-02-05T03:49:49.419Z,3.94
2019-02-05T03:52:41.447Z,4.09
2019-02-05T03:55:48.107Z,4.19
2019-02-05T03:58:52.135Z,4.20
2019-02-05T04:01:45.065Z,4.24
2019-02-05T04:05:05.621Z,4.25
2019-02-05T04:08:02.671Z,4.21
2019-02-05T04:11:22.745Z,4.29
2019-02-05T04:14:25.994Z,4.05
2019-02-05T04:17:57.545Z,4.15
2019-02-05T04:20:49.057Z,4.18
2019-02-05T04:23:55.815Z,4.20
2019-02-05T04:27:03.896Z,4.25
2019-02-05T04:30:13.669Z,4.33
2019-02-05T04:33:13.746Z,4.35
2019-02-05T04:36:23.441Z,4.26
2019-02-05T04:39:29.937Z,4.11
2019-02-05T04:42:25.122Z,4.12
2019-02-05T04:45:34.502Z,4.08
2019-02-05T04:48:43.572Z,4.17
2019-02-05T04:52:09.300Z,4.10
2019-02-05T04:55:15.193Z,3.99
2019-02-05T04:58:19.534Z,4.15
2019-02-05T05:01:24.753Z,4.00
2019-02-05T05:04:15.344Z,3.93
2019-02-05T05:07:03.119Z,4.05
2019-02-05T05:09:59.369Z,3.98
2019-02-05T05:12:40.717Z,4.07
2019-02-05T05:15:16.733Z,4.14
2019-02-05T05:17:48.268Z,4.12
2019-02-05T05:20:18.112Z,4.24
2019-02-05T05:22:48.360Z,4.09
2019-02-05T05:25:18.908Z,3.97
2019-02-05T05:27:53.281Z,3.98
2019-02-05T05:30:26.229Z,4.02
2019-02-05T05:32:58.934Z,4.13
2019-02-05T05:35:40.666Z,4.05
2019-02-05T05:38:03.513Z,3.98
2019-02-05T05:40:33.447Z,4.15
2019-02-05T05:43:11.628Z,4.08
2019-02-05T05:45:49.433Z,4.16
2019-02-05T05:48:20.086Z,4.16
2019-02-05T05:50:50.077Z,4.07
2019-02-05T05:53:20.536Z,4.21
2019-02-05T05:55:50.772Z,3.99
2019-02-05T05:58:23.164Z,4.04
2019-02-05T06:00:52.561Z,4.05
2019-02-05T06:03:22.574Z,4.14
2019-02-05T06:05:52.776Z,4.21
2019-02-05T06:08:22.899Z,4.19
2019-02-05T06:10:52.764Z,4.07
2019-02-05T06:13:22.746Z,4.12
2019-02-05T06:15:52.762Z,4.22
2019-02-05T06:18:23.376Z,4.07
2019-02-05T06:20:53.538Z,4.08
2019-02-05T06:23:23.498Z,4.08
2019-02-05T06:25:53.613Z,4.20
2019-02-05T06:28:34.405Z,4.22
2019-02-05T06:30:56.491Z,4.10
2019-02-05T06:33:29.016Z,4.24
2019-02-05T06:35:59.166Z,4.27
2019-02-05T06:38:29.230Z,4.15
2019-02-05T06:40:59.326Z,4.16
2019-02-05T06:43:31.464Z,4.23
2019-02-05T06:46:01.693Z,4.21
2019-02-05T06:48:31.652Z,4.30
2019-02-05T06:51:01.635Z,4.08
2019-02-05T06:53:31.716Z,4.23
2019-02-05T06:56:01.726Z,4.12
2019-02-05T06:58:31.646Z,4.02
2019-02-05T07:01:03.278Z,4.19
2019-02-05T07:03:33.212Z,4.07
2019-02-05T07:06:03.252Z,4.18
2019-02-05T07:08:33.450Z,4.09
2019-02-05T07:11:03.981Z,4.07
2019-02-05T07:13:35.730Z,4.10
2019-02-05T07:16:05.934Z,4.09
2019-02-05T07:18:35.968Z,4.21
2019-02-05T07:21:06.130Z,4.16
2019-02-05T07:23:36.223Z,4.33
2019-02-05T07:26:06.257Z,4.34
2019-02-05T07:28:36.195Z,4.38
2019-02-05T07:31:06.316Z,4.17
2019-02-05T07:33:36.420Z,4.25
2019-02-05T07:36:06.456Z,4.25
2019-02-05T07:38:36.399Z,4.27
2019-02-05T07:41:06.378Z,4.44
2019-02-05T07:43:36.328Z,4.37
2019-02-05T07:46:06.275Z,4.41
2019-02-05T07:48:36.247Z,4.22
2019-02-05T07:51:06.253Z,4.49
2019-02-05T07:53:36.268Z,4.55
2019-02-05T07:56:06.356Z,4.52
2019-02-05T07:58:36.492Z,4.61
2019-02-05T08:01:06.491Z,4.63
2019-02-05T08:03:36.742Z,4.70
2019-02-05T08:06:06.705Z,4.56
2019-02-05T08:08:37.609Z,4.56
2019-02-05T08:11:07.580Z,4.67
2019-02-05T08:13:37.598Z,4.43
2019-02-05T08:16:07.615Z,4.48
2019-02-05T08:18:39.533Z,4.48
2019-02-05T08:21:09.640Z,4.57
2019-02-05T08:23:39.634Z,4.62
2019-02-05T08:26:10.610Z,4.50
2019-02-05T08:28:43.725Z,4.52
2019-02-05T08:31:13.756Z,4.56
2019-02-05T08:33:43.712Z,4.71
2019-02-05T08:36:13.740Z,4.57
2019-02-05T08:38:43.700Z,4.45
2019-02-05T08:41:13.638Z,4.68
2019-02-05T08:43:43.629Z,4.54
2019-02-05T08:46:13.649Z,4.50
2019-02-05T08:48:43.516Z,4.54
2019-02-05T08:51:13.761Z,4.48
2019-02-05T08:53:43.712Z,4.56
2019-02-05T08:56:13.607Z,4.64
2019-02-05T08:58:43.397Z,4.52
2019-02-05T09:01:14.604Z,4.50
2019-02-05T09:03:44.909Z,4.63
2019-02-05T09:06:15.304Z,4.67
2019-02-05T09:08:45.264Z,4.43
2019-02-05T09:11:15.772Z,4.57
2019-02-05T09:13:45.936Z,4.48
2019-02-05T09:16:17.633Z,4.68
2019-02-05T09:18:49.073Z,4.91
2019-02-05T09:21:19.240Z,4.98
2019-02-05T09:23:49.492Z,4.80
2019-02-05T09:26:19.584Z,4.83
2019-02-05T09:28:52.535Z,4.85
2019-02-05T09:31:24.956Z,4.91
2019-02-05T09:33:56.694Z,4.83
2019-02-05T09:36:27.115Z,4.89
2019-02-05T09:38:57.201Z,4.90
2019-02-05T09:41:28.459Z,4.87
2019-02-05T09:44:00.683Z,4.95
2019-02-05T09:46:31.634Z,5.18
2019-02-05T09:49:01.612Z,5.12
2019-02-05T09:51:31.525Z,5.09
2019-02-05T09:54:01.721Z,5.36
2019-02-05T09:56:34.659Z,5.46
2019-02-05T09:59:04.689Z,5.06
2019-02-05T10:01:35.105Z,5.22
2019-02-05T10:04:05.478Z,4.90
2019-02-05T10:06:38.043Z,4.98
2019-02-05T10:09:09.034Z,4.99
2019-02-05T10:11:39.100Z,5.03
2019-02-05T10:14:09.091Z,5.13
2019-02-05T10:16:41.129Z,4.99
2019-02-05T10:19:11.644Z,4.96
2019-02-05T10:21:42.431Z,4.97
2019-02-05T10:24:15.665Z,4.99
2019-02-05T10:26:50.457Z,5.10
2019-02-05T10:29:20.477Z,5.17
2019-02-05T10:31:50.789Z,5.19
2019-02-05T10:34:20.811Z,5.28
2019-02-05T10:36:50.684Z,5.05
2019-02-05T10:39:20.696Z,4.98
2019-02-05T10:41:50.785Z,5.06
2019-02-05T10:44:20.918Z,5.25
2019-02-05T10:46:50.954Z,5.47
2019-02-05T10:49:20.928Z,5.53
2019-02-05T10:51:50.930Z,5.41
2019-02-05T10:54:20.841Z,5.31
2019-02-05T10:56:50.928Z,5.42
2019-02-05T10:59:21.941Z,5.39
2019-02-05T11:01:55.411Z,5.45
2019-02-05T11:04:25.627Z,5.19
2019-02-05T11:06:57.174Z,5.12
2019-02-05T11:09:28.071Z,4.92
2019-02-05T11:11:58.142Z,4.98
2019-02-05T11:14:35.464Z,4.88
2019-02-05T11:17:05.974Z,5.00
2019-02-05T11:19:36.085Z,4.98
2019-02-05T11:22:06.186Z,5.17
2019-02-05T11:24:37.356Z,5.12
2019-02-05T11:27:08.461Z,4.97
2019-02-05T11:29:38.889Z,5.08
2019-02-05T11:32:09.185Z,5.11
2019-02-05T11:34:39.382Z,5.11
2019-02-05T11:37:09.464Z,5.08
2019-02-05T11:39:39.753Z,5.07
2019-02-05T11:42:10.117Z,5.08
2019-02-05T11:44:47.507Z,5.22
2019-02-05T11:47:22.506Z,5.24
2019-02-05T11:49:53.164Z,5.11
2019-02-05T11:52:23.262Z,5.09
2019-02-05T11:54:54.675Z,5.27
2019-02-05T11:57:25.433Z,5.27
2019-02-05T11:59:55.663Z,5.19
2019-02-05T12:02:28.718Z,5.21
2019-02-05T12:04:59.229Z,5.27
2019-02-05T12:07:29.708Z,5.31
2019-02-05T12:10:03.321Z,5.15
2019-02-05T12:12:42.360Z,5.14
2019-02-05T12:15:13.034Z,4.93
2019-02-05T12:17:43.454Z,4.86
2019-02-05T12:20:15.138Z,4.81
2019-02-05T12:22:45.505Z,4.90
2019-02-05T12:25:16.444Z,5.10
2019-02-05T12:27:47.992Z,4.97
2019-02-05T12:30:20.945Z,5.04
2019-02-05T12:32:50.993Z,5.10
2019-02-05T12:35:21.131Z,5.18
2019-02-05T12:37:51.142Z,5.17
2019-02-05T12:40:21.650Z,4.90
2019-02-05T12:42:51.920Z,5.08
2019-02-05T12:45:24.249Z,4.94
2019-02-05T12:47:54.467Z,4.80
2019-02-05T12:50:26.891Z,4.85
2019-02-05T12:52:57.065Z,4.85
2019-02-05T12:55:27.383Z,4.78
2019-02-05T12:57:59.431Z,4.90
2019-02-05T13:00:34.529Z,4.97
2019-02-05T13:03:05.101Z,5.06
2019-02-05T13:05:35.351Z,5.18
2019-02-05T13:08:07.975Z,5.05
2019-02-05T13:10:40.302Z,4.93
2019-02-05T13:13:10.376Z,4.99
2019-02-05T13:15:40.749Z,4.97
2019-02-05T13:18:10.963Z,4.96
2019-02-05T13:20:41.734Z,4.85
2019-02-05T13:23:15.527Z,4.87
2019-02-05T13:25:46.195Z,4.86
2019-02-05T13:28:22.266Z,5.00
2019-02-05T13:30:52.681Z,4.90
2019-02-05T13:33:23.224Z,4.83
2019-02-05T13:35:53.531Z,5.00
2019-02-05T13:38:23.662Z,4.96
2019-02-05T13:40:53.963Z,5.05
2019-02-05T13:43:25.063Z,4.84
2019-02-05T13:45:55.291Z,4.74
2019-02-05T13:48:25.389Z,4.81
2019-02-05T13:50:56.377Z,4.75
2019-02-05T13:53:26.821Z,4.88
2019-02-05T13:55:57.041Z,4.94
2019-02-05T13:58:29.928Z,5.04
2019-02-05T14:01:00.020Z,5.09
2019-02-05T14:03:30.087Z,5.06
2019-02-05T14:06:00.130Z,5.00
2019-02-05T14:08:38.424Z,4.86
2019-02-05T14:11:04.327Z,4.71
2019-02-05T14:13:34.670Z,4.82
2019-02-05T14:16:04.989Z,4.86
2019-02-05T14:18:35.052Z,4.78
2019-02-05T14:21:07.253Z,4.82
2019-02-05T14:23:37.338Z,4.73
2019-02-05T14:26:10.452Z,4.80
2019-02-05T14:28:40.657Z,4.75
2019-02-05T14:31:10.903Z,4.71
2019-02-05T14:33:40.967Z,4.57
2019-02-05T14:36:10.934Z,4.50
2019-02-05T14:38:41.021Z,4.45
2019-02-05T14:41:11.287Z,4.56
2019-02-05T14:43:41.259Z,4.76
2019-02-05T14:46:13.264Z,4.59
2019-02-05T14:48:43.179Z,4.63
2019-02-05T14:51:13.576Z,4.62
2019-02-05T14:53:44.339Z,4.63
2019-02-05T14:56:14.482Z,4.81
2019-02-05T14:58:48.568Z,4.83
2019-02-05T15:01:22.300Z,4.92
2019-02-05T15:03:58.272Z,5.03
2019-02-05T15:06:32.049Z,5.05
2019-02-05T15:09:06.436Z,4.91
2019-02-05T15:11:46.554Z,4.80
2019-02-05T15:14:16.830Z,4.93
2019-02-05T15:16:47.186Z,4.86
2019-02-05T15:19:17.518Z,4.76
2019-02-05T15:21:48.026Z,4.89
2019-02-05T15:24:18.227Z,4.97
2019-02-05T15:26:48.487Z,4.91
2019-02-05T15:29:23.066Z,4.83
2019-02-05T15:31:55.614Z,4.88
2019-02-05T15:34:28.950Z,4.69
2019-02-05T15:37:10.763Z,4.80
2019-02-05T15:39:42.283Z,4.84
2019-02-05T15:42:19.588Z,4.86
2019-02-05T15:44:50.043Z,4.88
2019-02-05T15:47:20.270Z,4.85
2019-02-05T15:49:50.591Z,5.04
2019-02-05T15:52:20.736Z,5.07
2019-02-05T15:54:51.136Z,4.90
2019-02-05T15:57:21.656Z,4.97
2019-02-05T15:59:52.984Z,5.11
2019-02-05T16:02:23.102Z,4.96
2019-02-05T16:04:53.665Z,5.12
2019-02-05T16:07:23.668Z,5.08
2019-02-05T16:09:53.800Z,4.96
2019-02-05T16:12:24.016Z,5.04
2019-02-05T16:14:54.228Z,5.06
2019-02-05T16:17:24.638Z,5.10
2019-02-05T16:19:55.264Z,4.98
2019-02-05T16:22:26.324Z,5.03
2019-02-05T16:24:56.673Z,5.06
2019-02-05T16:27:26.886Z,5.13
2019-02-05T16:29:57.104Z,5.21
2019-02-05T16:32:28.733Z,5.15
2019-02-05T16:35:01.118Z,5.00
2019-02-05T16:37:31.476Z,5.01
2019-02-05T16:40:01.680Z,5.09
2019-02-05T16:42:32.215Z,4.92
2019-02-05T16:45:04.296Z,5.03
2019-02-05T16:47:34.483Z,5.16
2019-02-05T16:50:05.754Z,5.19
2019-02-05T16:52:38.809Z,4.90
2019-02-05T16:55:09.525Z,4.97
2019-02-05T16:57:44.773Z,5.19
2019-02-05T17:00:23.011Z,5.16
2019-02-05T17:02:53.720Z,4.94
2019-02-05T17:05:27.339Z,5.03
2019-02-05T17:07:58.107Z,5.12
2019-02-05T17:10:30.836Z,5.13
2019-02-05T17:13:01.117Z,5.09
2019-02-05T17:15:31.641Z,5.12
2019-02-05T17:18:02.434Z,5.09
2019-02-05T17:20:34.282Z,5.17
2019-02-05T17:23:05.249Z,5.04
2019-02-05T17:25:38.626Z,5.03
2019-02-05T17:28:12.098Z,5.05
2019-02-05T17:30:42.751Z,5.00
2019-02-05T17:33:13.349Z,5.08
2019-02-05T17:35:44.117Z,5.08
2019-02-05T17:38:22.207Z,5.14
2019-02-05T17:41:18.024Z,5.08
2019-02-05T17:43:51.893Z,5.09
2019-02-05T17:46:23.258Z,5.14
2019-02-05T17:48:59.148Z,5.08
2019-02-05T17:51:35.711Z,5.10
2019-02-05T17:54:07.296Z,5.21
2019-02-05T17:56:38.335Z,5.01
2019-02-05T17:59:11.764Z,5.15
2019-02-05T18:01:42.241Z,5.19
2019-02-05T18:04:12.914Z,5.06
2019-02-05T18:06:46.577Z,5.09
2019-02-05T18:09:30.427Z,4.92
2019-02-05T18:12:08.882Z,4.97
2019-02-05T18:14:39.908Z,5.01
2019-02-05T18:17:16.659Z,5.09
2019-02-05T18:19:47.068Z,5.07
2019-02-05T18:22:17.787Z,5.15
2019-02-05T18:24:48.131Z,5.09
2019-02-05T18:27:18.811Z,5.08
2019-02-05T18:29:49.433Z,5.11
2019-02-05T18:32:19.979Z,4.90
2019-02-05T18:34:50.490Z,4.98
2019-02-05T18:37:21.019Z,5.00
2019-02-05T18:39:51.523Z,4.88
2019-02-05T18:42:24.581Z,4.96
2019-02-05T18:44:55.386Z,5.13
2019-02-05T18:47:26.186Z,5.07
2019-02-05T18:49:57.059Z,5.02
2019-02-05T18:52:29.508Z,5.05
2019-02-05T18:55:00.666Z,5.13
2019-02-05T18:57:33.810Z,5.11
2019-02-05T19:00:18.578Z,5.11
2019-02-05T19:02:52.505Z,4.99
2019-02-05T19:05:23.120Z,5.06
2019-02-05T19:07:53.998Z,4.95
2019-02-05T19:10:25.543Z,4.94
2019-02-05T19:12:55.990Z,4.97
2019-02-05T19:15:33.896Z,4.76
2019-02-05T19:18:05.123Z,5.00
2019-02-05T19:20:35.824Z,4.86
2019-02-05T19:23:07.595Z,4.85
2019-02-05T19:25:59.749Z,4.96
2019-02-05T19:28:35.772Z,4.92
2019-02-05T19:31:29.382Z,4.92
2019-02-05T19:34:01.201Z,4.86
2019-02-05T19:36:32.134Z,4.87
2019-02-05T19:39:02.665Z,5.04
2019-02-05T19:41:34.961Z,4.86
2019-02-05T19:44:05.886Z,5.01
2019-02-05T19:47:03.826Z,4.96
2019-02-05T19:49:47.734Z,4.80
2019-02-05T19:52:21.866Z,4.81
2019-02-05T19:54:55.248Z,4.96
2019-02-05T19:57:25.530Z,5.03
2019-02-05T20:00:07.071Z,4.98
2019-02-05T20:02:39.272Z,4.84
2019-02-05T20:05:10.894Z,5.00
2019-02-05T20:07:41.422Z,5.20
2019-02-05T20:10:13.110Z,5.09
2019-02-05T20:12:43.507Z,5.10
2019-02-05T20:15:14.343Z,5.24
2019-02-05T20:17:47.804Z,5.15
2019-02-05T20:20:18.754Z,5.25
2019-02-05T20:22:49.784Z,5.18
2019-02-05T20:25:27.511Z,5.36
2019-02-05T20:28:01.136Z,5.28
2019-02-05T20:30:32.105Z,5.37
2019-02-05T20:33:05.231Z,5.43
2019-02-05T20:35:37.898Z,5.31
2019-02-05T20:38:10.307Z,5.38
2019-02-05T20:40:41.198Z,5.25
2019-02-05T20:43:15.495Z,5.43
2019-02-05T20:45:47.663Z,5.10
2019-02-05T20:48:18.740Z,5.47
2019-02-05T20:50:49.350Z,5.50
2019-02-05T20:53:19.903Z,5.40
2019-02-05T20:55:51.248Z,5.53
2019-02-05T20:58:22.284Z,5.70
2019-02-05T21:00:52.994Z,5.63
2019-02-05T21:03:24.009Z,5.64
2019-02-05T21:05:54.590Z,5.78
2019-02-05T21:08:25.314Z,5.75
2019-02-05T21:11:04.183Z,5.67
2019-02-05T21:13:36.509Z,5.68
2019-02-05T21:16:07.566Z,5.71
2019-02-05T21:18:37.865Z,5.65
2019-02-05T21:21:08.163Z,5.85
2019-02-05T21:23:38.659Z,5.81
2019-02-05T21:26:09.221Z,5.82
2019-02-05T21:28:40.209Z,5.80
2019-02-05T21:31:10.757Z,5.87
2019-02-05T21:33:41.180Z,5.79
2019-02-05T21:36:11.749Z,5.76
2019-02-05T21:38:45.433Z,5.74
2019-02-05T21:41:15.589Z,5.87
2019-02-05T21:43:49.264Z,5.63
2019-02-05T21:46:19.908Z,5.87
2019-02-05T21:48:50.422Z,5.68
2019-02-05T21:51:20.942Z,5.85
2019-02-05T21:53:51.579Z,5.88
2019-02-05T21:56:21.994Z,5.86
2019-02-05T21:58:52.390Z,5.88
2019-02-05T22:01:23.155Z,5.83
2019-02-05T22:03:53.873Z,5.84
2019-02-05T22:06:24.207Z,5.79
2019-02-05T22:08:55.031Z,5.84
2019-02-05T22:11:26.961Z,5.74
2019-02-05T22:13:57.324Z,5.55
2019-02-05T22:16:27.866Z,5.80
2019-02-05T22:18:58.364Z,5.79
2019-02-05T22:21:28.895Z,5.70
2019-02-05T22:23:59.742Z,5.91
2019-02-05T22:26:30.887Z,5.84
2019-02-05T22:29:01.853Z,5.84
2019-02-05T22:31:32.523Z,5.82
2019-02-05T22:34:03.153Z,5.85
2019-02-05T22:36:33.639Z,5.93
2019-02-05T22:39:05.960Z,5.97
2019-02-05T22:41:38.142Z,6.01
2019-02-05T22:44:08.679Z,6.00
2019-02-05T22:46:39.354Z,5.97
2019-02-05T22:49:09.966Z,6.07
2019-02-05T22:51:40.659Z,6.06
2019-02-05T22:54:11.160Z,6.09
2019-02-05T22:56:41.751Z,6.06
2019-02-05T22:59:12.817Z,6.03
2019-02-05T23:01:55.954Z,5.92
2019-02-05T23:05:06.249Z,5.98
2019-02-05T23:07:36.950Z,6.05
2019-02-05T23:11:06.534Z,5.98
2019-02-05T23:13:37.328Z,6.08
2019-02-05T23:16:07.985Z,5.73
2019-02-05T23:18:38.710Z,6.01
2019-02-05T23:21:09.382Z,6.03
2019-02-05T23:23:40.101Z,6.17
2019-02-05T23:26:10.880Z,6.12
2019-02-05T23:28:41.641Z,6.02
2019-02-05T23:31:12.088Z,6.07
2019-02-05T23:33:44.670Z,6.07
2019-02-05T23:36:14.807Z,6.08
2019-02-05T23:38:45.351Z,6.09
2019-02-05T23:41:16.409Z,6.08
2019-02-05T23:43:46.757Z,5.98
2019-02-05T23:46:17.490Z,5.84
2019-02-05T23:48:48.085Z,6.02
2019-02-05T23:51:18.506Z,6.10
2019-02-05T23:53:48.887Z,6.15
2019-02-05T23:56:25.644Z,6.12
2019-02-05T23:58:51.709Z,6.08
